createdAt,value
2018-06-12T00:01:22.519Z,13.60
2018-06-12T00:03:55.380Z,12.87
2018-06-12T00:06:31.223Z,16.70
2018-06-12T00:09:04.034Z,15.07
2018-06-12T00:11:36.831Z,13.47
2018-06-12T00:14:09.271Z,13.47
2018-06-12T00:16:42.692Z,14.90
2018-06-12T00:19:14.518Z,15.73
2018-06-12T00:21:46.741Z,14.43
2018-06-12T00:24:22.850Z,17.57
2018-06-12T00:26:55.053Z,14.87
2018-06-12T00:29:38.263Z,17.60
2018-06-12T00:32:10.937Z,16.07
2018-06-12T00:34:43.252Z,20.40
2018-06-12T00:37:15.064Z,14.50
2018-06-12T00:39:48.022Z,18.43
2018-06-12T00:42:20.355Z,16.77
2018-06-12T00:44:52.953Z,17.67
2018-06-12T00:47:24.876Z,16.80
2018-06-12T00:49:56.258Z,17.07
2018-06-12T00:52:28.063Z,16.63
2018-06-12T00:55:00.540Z,17.63
2018-06-12T00:57:33.017Z,19.97
2018-06-12T01:00:05.686Z,18.67
2018-06-12T01:02:37.642Z,19.47
2018-06-12T01:05:14.545Z,19.50
2018-06-12T01:07:46.525Z,18.63
2018-06-12T01:10:19.204Z,18.00
2018-06-12T01:12:56.073Z,16.63
2018-06-12T01:15:27.757Z,18.70
2018-06-12T01:18:00.210Z,20.53
2018-06-12T01:20:32.273Z,19.73
2018-06-12T01:23:04.142Z,17.93
2018-06-12T01:25:37.122Z,18.10
2018-06-12T01:28:10.256Z,19.20
2018-06-12T01:30:42.576Z,19.63
2018-06-12T01:33:15.653Z,22.23
2018-06-12T01:35:48.694Z,18.80
2018-06-12T01:38:25.826Z,19.40
2018-06-12T01:40:59.754Z,21.63
2018-06-12T01:43:32.651Z,18.10
2018-06-12T01:46:04.805Z,20.67
2018-06-12T01:48:37.559Z,18.93
2018-06-12T01:51:16.081Z,24.67
2018-06-12T01:53:52.494Z,21.47
2018-06-12T01:56:24.998Z,19.77
2018-06-12T01:58:58.112Z,20.90
2018-06-12T02:01:29.513Z,20.73
2018-06-12T02:04:02.900Z,18.03
2018-06-12T02:06:37.633Z,22.83
2018-06-12T02:09:12.611Z,22.07
2018-06-12T02:11:46.256Z,22.53
2018-06-12T02:14:19.973Z,23.00
2018-06-12T02:16:57.902Z,21.20
2018-06-12T02:19:31.171Z,20.40
2018-06-12T02:22:05.102Z,23.27
2018-06-12T02:24:38.197Z,21.70
2018-06-12T02:27:11.086Z,21.97
2018-06-12T02:29:48.360Z,19.70
2018-06-12T02:32:24.362Z,25.93
2018-06-12T02:35:05.938Z,23.43
2018-06-12T02:37:38.596Z,23.40
2018-06-12T02:40:10.901Z,22.13
2018-06-12T02:42:43.223Z,26.87
2018-06-12T02:45:16.304Z,21.67
2018-06-12T02:47:48.747Z,24.97
2018-06-12T02:50:21.773Z,24.30
2018-06-12T02:52:55.008Z,26.37
2018-06-12T02:55:31.323Z,25.93
2018-06-12T02:58:04.631Z,26.80
2018-06-12T03:00:37.370Z,30.53
2018-06-12T03:03:10.694Z,26.63
2018-06-12T03:05:43.371Z,27.73
2018-06-12T03:08:17.353Z,25.37
2018-06-12T03:10:49.324Z,23.43
2018-06-12T03:13:22.507Z,28.57
2018-06-12T03:16:01.698Z,26.33
2018-06-12T03:18:35.794Z,28.13
2018-06-12T03:21:09.019Z,26.37
2018-06-12T03:23:43.173Z,24.93
2018-06-12T03:29:08.182Z,30.03
2018-06-12T03:31:39.728Z,26.33
2018-06-12T03:34:11.560Z,29.87
2018-06-12T03:36:44.687Z,26.73
2018-06-12T03:39:25.856Z,32.47
2018-06-12T03:41:58.967Z,31.80
2018-06-12T03:44:30.660Z,26.03
2018-06-12T03:47:02.152Z,30.23
2018-06-12T03:49:34.289Z,27.90
2018-06-12T03:52:07.223Z,28.43
2018-06-12T03:54:40.076Z,32.33
2018-06-12T03:57:11.968Z,27.97
2018-06-12T03:59:50.006Z,30.47
2018-06-12T04:02:22.550Z,30.50
2018-06-12T04:04:55.597Z,27.93
2018-06-12T04:07:29.631Z,29.30
2018-06-12T04:10:01.788Z,28.77
2018-06-12T04:12:36.666Z,29.57
2018-06-12T04:15:08.079Z,31.27
2018-06-12T04:17:40.703Z,27.83
2018-06-12T04:20:11.878Z,31.07
2018-06-12T04:22:43.398Z,27.90
2018-06-12T04:25:14.804Z,28.83
2018-06-12T04:27:47.286Z,29.50
2018-06-12T04:30:20.071Z,31.40
2018-06-12T04:32:51.746Z,35.27
2018-06-12T04:35:24.112Z,30.77
2018-06-12T04:37:56.269Z,30.57
2018-06-12T04:40:28.040Z,30.80
2018-06-12T04:43:00.189Z,33.57
2018-06-12T04:45:31.917Z,31.33
2018-06-12T04:48:02.868Z,32.63
2018-06-12T04:50:34.586Z,32.27
2018-06-12T04:53:12.321Z,32.50
2018-06-12T04:55:44.287Z,31.63
2018-06-12T04:58:16.598Z,30.47
2018-06-12T05:00:50.168Z,25.70
2018-06-12T05:03:22.011Z,27.83
2018-06-12T05:05:53.844Z,31.03
2018-06-12T05:08:29.942Z,28.07
2018-06-12T05:11:01.121Z,29.00
2018-06-12T05:13:33.807Z,27.83
2018-06-12T05:16:06.553Z,24.43
2018-06-12T05:18:37.142Z,28.43
2018-06-12T05:21:08.084Z,33.00
2018-06-12T05:23:38.760Z,27.90
2018-06-12T05:26:09.658Z,27.63
2018-06-12T05:28:40.018Z,24.60
2018-06-12T05:31:17.196Z,24.97
2018-06-12T05:33:46.940Z,25.13
2018-06-12T05:36:17.282Z,22.63
2018-06-12T05:38:47.722Z,21.73
2018-06-12T05:41:22.291Z,25.80
2018-06-12T05:43:52.676Z,23.07
2018-06-12T05:46:24.091Z,24.27
2018-06-12T05:48:59.080Z,25.00
2018-06-12T05:51:29.615Z,21.63
2018-06-12T05:54:11.653Z,23.77
2018-06-12T05:56:41.957Z,20.90
2018-06-12T05:59:13.549Z,21.40
2018-06-12T06:01:44.602Z,25.60
2018-06-12T06:04:28.973Z,23.33
2018-06-12T06:06:59.665Z,24.30
2018-06-12T06:09:30.256Z,25.40
2018-06-12T06:12:00.882Z,27.57
2018-06-12T06:14:40.749Z,19.97
2018-06-12T06:17:11.042Z,21.43
2018-06-12T06:20:00.416Z,24.40
2018-06-12T06:22:31.219Z,19.63
2018-06-12T06:25:02.054Z,20.30
2018-06-12T06:27:32.097Z,20.57
2018-06-12T06:30:03.751Z,24.90
2018-06-12T06:32:34.607Z,21.30
2018-06-12T06:35:16.178Z,27.37
2018-06-12T06:37:46.630Z,20.17
2018-06-12T06:40:17.372Z,20.97
2018-06-12T06:42:47.332Z,19.17
2018-06-12T06:45:19.152Z,19.87
2018-06-12T06:47:48.996Z,17.83
2018-06-12T06:50:19.149Z,19.10
2018-06-12T06:52:49.395Z,23.47
2018-06-12T06:55:19.373Z,19.90
2018-06-12T06:57:50.125Z,18.40
2018-06-12T07:00:20.715Z,19.03
2018-06-12T07:02:50.286Z,16.87
2018-06-12T07:05:21.746Z,20.37
2018-06-12T07:07:52.948Z,20.10
2018-06-12T07:10:25.752Z,19.50
2018-06-12T07:12:56.094Z,20.10
2018-06-12T07:15:26.588Z,19.90
2018-06-12T07:17:57.525Z,21.20
2018-06-12T07:20:46.745Z,21.63
2018-06-12T07:23:17.737Z,23.77
2018-06-12T07:26:02.062Z,22.17
2018-06-12T07:28:32.391Z,19.90
2018-06-12T07:31:02.688Z,21.93
2018-06-12T07:33:37.804Z,18.63
2018-06-12T07:36:09.771Z,16.10
2018-06-12T07:38:40.204Z,17.90
2018-06-12T07:41:18.371Z,18.17
2018-06-12T07:43:49.783Z,18.27
2018-06-12T07:46:20.384Z,18.63
2018-06-12T07:48:53.622Z,16.40
2018-06-12T07:51:23.671Z,17.60
2018-06-12T07:53:59.569Z,18.07
2018-06-12T07:56:29.554Z,16.63
2018-06-12T07:59:00.868Z,18.03
2018-06-12T08:01:31.364Z,18.03
2018-06-12T08:04:03.067Z,18.47
2018-06-12T08:06:33.375Z,19.93
2018-06-12T08:09:12.039Z,17.00
2018-06-12T08:11:42.429Z,13.83
2018-06-12T08:14:16.665Z,18.47
2018-06-12T08:16:46.489Z,14.90
2018-06-12T08:19:21.412Z,18.40
2018-06-12T08:21:51.819Z,15.50
2018-06-12T08:24:27.263Z,13.10
2018-06-12T08:26:58.475Z,12.77
2018-06-12T08:29:29.574Z,16.80
2018-06-12T08:32:00.298Z,13.47
2018-06-12T08:34:31.134Z,16.33
2018-06-12T08:37:01.225Z,16.27
2018-06-12T08:39:31.160Z,9.10
2018-06-12T08:42:01.701Z,9.17
2018-06-12T08:44:31.829Z,9.60
2018-06-12T08:47:02.376Z,14.67
2018-06-12T08:49:32.514Z,11.80
2018-06-12T08:52:02.824Z,11.83
2018-06-12T08:54:33.141Z,12.40
2018-06-12T08:57:03.846Z,11.57
2018-06-12T08:59:33.722Z,15.73
2018-06-12T09:02:04.401Z,14.97
2018-06-12T09:04:34.746Z,9.63
2018-06-12T09:07:04.408Z,9.73
2018-06-12T09:09:34.339Z,13.10
2018-06-12T09:12:04.549Z,7.80
2018-06-12T09:14:34.779Z,12.87
2018-06-12T09:17:06.837Z,10.63
2018-06-12T09:19:37.171Z,12.53
2018-06-12T09:22:07.405Z,9.33
2018-06-12T09:24:41.326Z,12.20
2018-06-12T09:27:11.546Z,12.07
2018-06-12T09:29:45.690Z,10.20
2018-06-12T09:32:16.315Z,13.27
2018-06-12T09:34:48.385Z,8.40
2018-06-12T09:37:19.028Z,14.43
2018-06-12T09:39:49.026Z,9.97
2018-06-12T09:42:29.683Z,10.13
2018-06-12T09:45:00.339Z,8.93
2018-06-12T09:47:35.525Z,13.33
2018-06-12T09:50:06.322Z,9.87
2018-06-12T09:52:36.519Z,14.40
2018-06-12T09:55:08.115Z,9.23
2018-06-12T09:57:38.244Z,13.13
2018-06-12T10:00:08.707Z,10.33
2018-06-12T10:02:39.343Z,10.10
2018-06-12T10:05:09.376Z,11.03
2018-06-12T10:07:39.841Z,10.97
2018-06-12T10:10:10.925Z,9.87
2018-06-12T10:12:40.692Z,10.67
2018-06-12T10:15:11.091Z,12.67
2018-06-12T10:17:41.034Z,11.07
2018-06-12T10:20:10.947Z,12.37
2018-06-12T10:22:40.437Z,9.80
2018-06-12T10:25:19.645Z,9.33
2018-06-12T10:27:49.814Z,11.23
2018-06-12T10:30:19.798Z,9.70
2018-06-12T10:32:51.923Z,7.77
2018-06-12T10:35:21.977Z,8.53
2018-06-12T10:37:52.171Z,7.63
2018-06-12T10:40:24.524Z,7.73
2018-06-12T10:42:54.302Z,9.90
2018-06-12T10:45:35.491Z,6.83
2018-06-12T10:48:06.015Z,9.03
2018-06-12T10:50:36.191Z,9.07
2018-06-12T10:53:08.637Z,7.90
2018-06-12T10:55:39.397Z,8.00
2018-06-12T10:58:10.673Z,8.37
2018-06-12T11:00:40.789Z,10.80
2018-06-12T11:03:16.189Z,10.30
2018-06-12T11:05:45.971Z,11.37
2018-06-12T11:08:18.160Z,7.87
2018-06-12T11:10:48.282Z,8.97
2018-06-12T11:13:18.980Z,10.77
2018-06-12T11:15:48.790Z,10.00
2018-06-12T11:18:20.958Z,9.93
2018-06-12T11:20:51.052Z,8.50
2018-06-12T11:23:26.678Z,11.43
2018-06-12T11:25:57.632Z,9.23
2018-06-12T11:28:27.810Z,9.37
2018-06-12T11:31:06.575Z,8.20
2018-06-12T11:33:36.904Z,10.23
2018-06-12T11:36:13.769Z,8.33
2018-06-12T11:38:47.799Z,8.97
2018-06-12T11:41:17.986Z,9.27
2018-06-12T11:43:49.229Z,8.50
2018-06-12T11:46:20.039Z,8.10
2018-06-12T11:48:50.962Z,8.83
2018-06-12T11:51:33.670Z,9.87
2018-06-12T11:54:04.663Z,10.03
2018-06-12T11:56:39.563Z,11.27
2018-06-12T11:59:09.971Z,11.37
2018-06-12T12:01:40.889Z,11.60
2018-06-12T12:04:11.654Z,12.07
2018-06-12T12:06:42.521Z,11.50
2018-06-12T12:09:14.276Z,11.90
2018-06-12T12:11:45.104Z,10.87
2018-06-12T12:14:16.089Z,14.07
2018-06-12T12:16:46.445Z,11.67
2018-06-12T12:19:16.329Z,10.70
2018-06-12T12:21:56.492Z,11.07
2018-06-12T12:24:30.499Z,11.73
2018-06-12T12:27:03.209Z,12.40
2018-06-12T12:29:33.838Z,12.87
2018-06-12T12:32:04.368Z,10.00
2018-06-12T12:34:36.986Z,12.10
2018-06-12T12:37:07.801Z,11.60
2018-06-12T12:39:38.500Z,9.43
2018-06-12T12:42:17.061Z,9.33
2018-06-12T12:44:48.256Z,12.10
2018-06-12T12:47:20.133Z,11.70
2018-06-12T12:49:52.547Z,12.23
2018-06-12T12:52:25.521Z,11.87
2018-06-12T12:54:59.445Z,9.50
2018-06-12T12:57:30.293Z,11.57
2018-06-12T13:00:01.096Z,8.40
2018-06-12T13:02:32.340Z,11.87
2018-06-12T13:05:03.245Z,13.27
2018-06-12T13:07:34.595Z,9.37
2018-06-12T13:10:06.232Z,9.43
2018-06-12T13:12:37.314Z,10.70
2018-06-12T13:15:08.043Z,12.23
2018-06-12T13:17:39.638Z,11.20
2018-06-12T13:20:14.734Z,10.93
2018-06-12T13:22:46.764Z,12.77
2018-06-12T13:25:21.423Z,13.50
2018-06-12T13:27:52.704Z,13.23
2018-06-12T13:30:23.332Z,10.43
2018-06-12T13:32:54.418Z,11.07
2018-06-12T13:35:24.949Z,9.47
2018-06-12T13:38:06.758Z,9.90
2018-06-12T13:40:38.300Z,10.57
2018-06-12T13:43:08.797Z,9.07
2018-06-12T13:45:39.512Z,13.43
2018-06-12T13:48:10.152Z,12.17
2018-06-12T13:50:41.453Z,10.17
2018-06-12T13:53:12.160Z,9.47
2018-06-12T13:55:42.472Z,12.43
2018-06-12T13:58:13.208Z,12.83
2018-06-12T14:00:43.419Z,11.00
2018-06-12T14:03:16.104Z,12.07
2018-06-12T14:05:46.379Z,12.40
2018-06-12T14:08:17.207Z,12.83
2018-06-12T14:10:47.812Z,15.50
2018-06-12T14:13:18.017Z,12.53
2018-06-12T14:15:48.548Z,14.70
2018-06-12T14:18:18.844Z,15.67
2018-06-12T14:20:49.576Z,16.63
2018-06-12T14:23:25.365Z,11.70
2018-06-12T14:25:57.735Z,18.47
2018-06-12T14:28:28.813Z,12.73
2018-06-12T14:30:59.591Z,15.63
2018-06-12T14:33:30.610Z,16.53
2018-06-12T14:36:02.221Z,18.30
2018-06-12T14:38:32.722Z,14.73
2018-06-12T14:41:07.794Z,16.40
2018-06-12T14:43:39.280Z,16.87
2018-06-12T14:46:10.396Z,16.73
2018-06-12T14:48:41.128Z,16.73
2018-06-12T14:51:13.796Z,15.37
2018-06-12T14:53:44.760Z,14.87
2018-06-12T14:56:15.069Z,14.70
2018-06-12T14:58:50.101Z,16.37
2018-06-12T15:01:24.901Z,18.33
2018-06-12T15:03:57.849Z,16.40
2018-06-12T15:06:28.731Z,15.43
2018-06-12T15:09:00.031Z,19.33
2018-06-12T15:11:31.907Z,19.97
2018-06-12T15:14:02.373Z,15.97
2018-06-12T15:16:33.109Z,12.57
2018-06-12T15:19:08.823Z,13.60
2018-06-12T15:21:40.741Z,16.70
2018-06-12T15:24:12.242Z,12.77
2018-06-12T15:26:42.751Z,14.17
2018-06-12T15:29:13.946Z,13.57
2018-06-12T15:31:48.580Z,11.90
2018-06-12T15:34:19.390Z,12.67
2018-06-12T15:36:50.502Z,12.77
2018-06-12T15:39:21.108Z,9.57
2018-06-12T15:41:51.193Z,10.87
2018-06-12T15:44:22.167Z,14.90
2018-06-12T15:46:52.592Z,12.47
2018-06-12T15:49:24.427Z,14.53
2018-06-12T15:51:54.659Z,13.37
2018-06-12T15:54:27.840Z,14.70
2018-06-12T15:57:00.528Z,12.77
2018-06-12T15:59:32.421Z,13.47
2018-06-12T16:02:03.615Z,10.07
2018-06-12T16:04:33.597Z,14.80
2018-06-12T16:07:04.441Z,10.97
2018-06-12T16:09:35.376Z,12.37
2018-06-12T16:12:13.998Z,11.50
2018-06-12T16:14:46.198Z,11.73
2018-06-12T16:17:22.351Z,16.13
2018-06-12T16:19:53.728Z,16.77
2018-06-12T16:22:24.395Z,16.23
2018-06-12T16:24:55.207Z,12.77
2018-06-12T16:27:31.711Z,16.13
2018-06-12T16:30:04.121Z,14.07
2018-06-12T16:32:34.906Z,14.93
2018-06-12T16:35:05.959Z,16.40
2018-06-12T16:37:36.901Z,13.30
2018-06-12T16:40:14.785Z,13.50
2018-06-12T16:42:45.939Z,13.23
2018-06-12T16:45:17.375Z,13.10
2018-06-12T16:47:48.618Z,14.60
2018-06-12T16:50:20.056Z,9.93
2018-06-12T16:52:51.486Z,15.70
2018-06-12T16:55:22.674Z,14.00
2018-06-12T16:57:55.313Z,13.47
2018-06-12T17:00:26.392Z,11.27
2018-06-12T17:03:01.885Z,11.43
2018-06-12T17:05:37.473Z,15.07
2018-06-12T17:08:08.901Z,14.37
2018-06-12T17:10:41.043Z,10.77
2018-06-12T17:13:13.371Z,12.50
2018-06-12T17:15:44.699Z,12.80
2018-06-12T17:18:15.858Z,13.90
2018-06-12T17:20:46.735Z,11.60
2018-06-12T17:23:17.058Z,15.93
2018-06-12T17:25:49.500Z,12.83
2018-06-12T17:28:24.734Z,14.67
2018-06-12T17:30:56.485Z,10.17
2018-06-12T17:33:28.071Z,14.27
2018-06-12T17:36:04.584Z,11.50
2018-06-12T17:38:41.935Z,10.87
2018-06-12T17:41:12.510Z,11.67
2018-06-12T17:43:49.608Z,13.70
2018-06-12T17:46:20.750Z,16.37
2018-06-12T17:48:53.044Z,13.90
2018-06-12T17:51:24.419Z,12.70
2018-06-12T17:53:56.602Z,17.47
2018-06-12T17:56:27.682Z,11.70
2018-06-12T17:59:00.645Z,14.43
2018-06-12T18:01:31.442Z,12.83
2018-06-12T18:04:02.314Z,21.30
2018-06-12T18:06:33.055Z,14.07
2018-06-12T18:09:03.794Z,15.00
2018-06-12T18:11:39.172Z,19.60
2018-06-12T18:14:10.704Z,12.33
2018-06-12T18:16:41.845Z,15.60
2018-06-12T18:19:12.996Z,14.93
2018-06-12T18:21:44.307Z,14.13
2018-06-12T18:24:15.357Z,16.97
2018-06-12T18:26:46.526Z,14.50
2018-06-12T18:29:22.933Z,16.60
2018-06-12T18:31:54.463Z,15.67
2018-06-12T18:34:29.782Z,14.90
2018-06-12T18:37:00.786Z,18.97
2018-06-12T18:39:32.613Z,14.17
2018-06-12T18:42:03.349Z,12.03
2018-06-12T18:44:34.480Z,13.37
2018-06-12T18:47:05.484Z,17.30
2018-06-12T18:49:36.494Z,14.10
2018-06-12T18:52:08.584Z,15.40
2018-06-12T18:54:39.095Z,13.47
2018-06-12T18:57:10.485Z,12.17
2018-06-12T18:59:41.634Z,11.03
2018-06-12T19:02:12.146Z,13.97
2018-06-12T19:04:46.778Z,11.33
2018-06-12T19:07:21.431Z,16.00
2018-06-12T19:09:51.924Z,13.80
2018-06-12T19:12:24.256Z,14.37
2018-06-12T19:14:54.954Z,11.47
2018-06-12T19:17:36.564Z,11.70
2018-06-12T19:20:08.396Z,11.70
2018-06-12T19:22:45.896Z,12.10
2018-06-12T19:25:18.157Z,12.13
2018-06-12T19:27:49.960Z,16.47
2018-06-12T19:30:21.158Z,16.23
2018-06-12T19:32:52.061Z,14.00
2018-06-12T19:35:26.108Z,17.47
2018-06-12T19:37:57.326Z,14.30
2018-06-12T19:40:29.236Z,13.73
2018-06-12T19:43:02.523Z,10.70
2018-06-12T19:45:33.867Z,14.83
2018-06-12T19:48:05.594Z,14.90
2018-06-12T19:50:36.379Z,14.13
2018-06-12T19:53:08.804Z,17.33
2018-06-12T19:55:40.185Z,11.67
2018-06-12T19:58:16.927Z,14.27
2018-06-12T20:00:54.973Z,13.20
2018-06-12T20:03:27.571Z,9.90
2018-06-12T20:06:00.324Z,13.50
2018-06-12T20:08:31.654Z,13.70
2018-06-12T20:11:02.913Z,14.23
2018-06-12T20:13:33.793Z,11.23
2018-06-12T20:16:05.003Z,16.53
2018-06-12T20:18:36.430Z,11.93
2018-06-12T20:21:07.273Z,12.63
2018-06-12T20:23:37.932Z,10.30
2018-06-12T20:26:12.780Z,14.23
2018-06-12T20:28:43.713Z,10.63
2018-06-12T20:31:13.918Z,11.03
2018-06-12T20:33:44.585Z,8.67
2018-06-12T20:36:15.538Z,9.67
2018-06-12T20:38:45.837Z,8.27
2018-06-12T20:41:16.509Z,9.40
2018-06-12T20:43:48.447Z,11.17
2018-06-12T20:46:18.869Z,8.83
2018-06-12T20:48:50.506Z,10.07
2018-06-12T20:51:20.871Z,8.50
2018-06-12T20:53:52.478Z,7.50
2018-06-12T20:56:23.347Z,9.30
2018-06-12T20:58:54.021Z,11.47
2018-06-12T21:01:25.834Z,8.30
2018-06-12T21:03:56.577Z,10.63
2018-06-12T21:06:27.362Z,8.20
2018-06-12T21:08:58.846Z,8.23
2018-06-12T21:11:30.080Z,11.43
2018-06-12T21:14:00.375Z,9.23
2018-06-12T21:16:30.670Z,9.57
2018-06-12T21:19:01.620Z,8.63
2018-06-12T21:21:36.376Z,9.33
2018-06-12T21:24:08.636Z,9.00
2018-06-12T21:26:40.814Z,6.47
2018-06-12T21:29:16.201Z,8.57
2018-06-12T21:31:47.092Z,9.00
2018-06-12T21:34:18.038Z,7.53
2018-06-12T21:36:48.862Z,6.37
2018-06-12T21:39:20.539Z,7.73
2018-06-12T21:41:51.234Z,7.37
2018-06-12T21:44:22.315Z,9.90
2018-06-12T21:46:53.927Z,8.00
2018-06-12T21:49:25.165Z,8.27
2018-06-12T21:52:00.522Z,8.87
2018-06-12T21:54:35.877Z,11.93
2018-06-12T21:57:13.331Z,10.40
2018-06-12T21:59:44.611Z,9.80
2018-06-12T22:02:16.277Z,17.77
2018-06-12T22:04:47.744Z,6.97
2018-06-12T22:07:23.107Z,8.10
2018-06-12T22:09:54.255Z,10.17
2018-06-12T22:12:25.918Z,10.33
2018-06-12T22:14:58.688Z,8.90
2018-06-12T22:17:43.234Z,9.90
2018-06-12T22:20:13.950Z,10.70
2018-06-12T22:22:46.399Z,13.80
2018-06-12T22:25:21.337Z,11.80
2018-06-12T22:27:52.464Z,9.67
2018-06-12T22:30:26.718Z,11.63
2018-06-12T22:32:57.423Z,8.33
2018-06-12T22:35:27.673Z,10.90
2018-06-12T22:37:57.993Z,9.53
2018-06-12T22:40:38.625Z,8.17
2018-06-12T22:43:10.305Z,10.67
2018-06-12T22:45:40.835Z,10.13
2018-06-12T22:48:12.264Z,11.77
2018-06-12T22:50:42.574Z,9.30
2018-06-12T22:53:14.208Z,9.37
2018-06-12T22:55:45.237Z,9.40
2018-06-12T22:58:16.112Z,7.50
2018-06-12T23:00:47.393Z,8.77
2018-06-12T23:03:18.897Z,8.00
2018-06-12T23:05:50.740Z,11.20
2018-06-12T23:08:21.664Z,9.90
2018-06-12T23:10:52.252Z,14.43
2018-06-12T23:13:23.598Z,11.03
2018-06-12T23:15:53.977Z,14.73
2018-06-12T23:18:24.589Z,9.83
2018-06-12T23:21:07.453Z,8.10
2018-06-12T23:23:38.463Z,7.73
2018-06-12T23:26:15.884Z,7.53
2018-06-12T23:28:52.125Z,8.73
2018-06-12T23:31:22.988Z,6.70
2018-06-12T23:33:53.899Z,7.23
2018-06-12T23:36:25.216Z,8.27
2018-06-12T23:38:56.240Z,6.43
2018-06-12T23:41:26.906Z,5.77
2018-06-12T23:44:01.608Z,5.90
2018-06-12T23:46:32.745Z,5.40
2018-06-12T23:49:03.761Z,7.63
2018-06-12T23:51:34.553Z,7.83
2018-06-12T23:54:05.955Z,4.97
2018-06-12T23:56:37.034Z,6.40
2018-06-12T23:59:07.458Z,5.50
